Time,TemperatureF,DewpointF,PressureIn,WindDirection,WindDirectionDegrees,WindSpeedMPH,WindSpeedGustMPH,Humidity,HourlyPrecipIn,Conditions,Clouds,dailyrainin,SoftwareType,DateUTC
2013-04-29 00:00:00,48.9,29.5,-100.00,SW,216,2.5,5.4,46,0.00,,,-99.99,HOBO +U30 +Weather +,2013-04-29 04:00:00,
2013-04-29 00:15:00,48.4,30.8,-100.00,SSW,212,1.6,6.7,50,0.00,,,-99.99,HOBO +U30 +Weather +,2013-04-29 04:15:00,
2013-04-29 00:30:00,48.5,31.9,-100.00,SSW,211,1.6,5.4,52,0.00,,,-99.99,HOBO +U30 +Weather +,2013-04-29 04:30:00,
2013-04-29 00:45:00,48.5,34.1,-100.00,SW,218,2.5,6.3,57,0.00,,,-99.99,HOBO +U30 +Weather +,2013-04-29 04:45:00,
2013-04-29 01:00:00,47.6,35.4,-100.00,SW,229,1.6,4.3,62,0.00,,,-99.99,HOBO +U30 +Weather +,2013-04-29 05:00:00,
2013-04-29 01:15:00,48.1,38.3,-100.00,SW,226,2.5,7.2,68,0.00,,,-99.99,HOBO +U30 +Weather +,2013-04-29 05:15:00,
2013-04-29 01:30:00,48.2,39.9,-100.00,SW,223,4.3,9.6,72,0.00,,,-99.99,HOBO +U30 +Weather +,2013-04-29 05:30:00,
2013-04-29 01:45:00,48.4,40.2,-100.00,SSW,213,3.4,8.7,73,0.00,,,-99.99,HOBO +U30 +Weather +,2013-04-29 05:45:00,
2013-04-29 02:00:00,48.0,40.3,-100.00,SW,218,2.9,5.8,74,0.00,,,-99.99,HOBO +U30 +Weather +,2013-04-29 06:00:00,
2013-04-29 02:15:00,47.7,40.2,-100.00,SW,223,2.5,6.3,74,0.00,,,-99.99,HOBO +U30 +Weather +,2013-04-29 06:15:00,
2013-04-29 02:30:00,47.1,40.1,-100.00,SSW,212,1.6,7.4,76,0.00,,,-99.99,HOBO +U30 +Weather +,2013-04-29 06:30:00,
2013-04-29 02:45:00,46.7,40.0,-100.00,SSW,212,0.9,4.9,77,0.00,,,-99.99,HOBO +U30 +Weather +,2013-04-29 06:45:00,
2013-04-29 03:00:00,47.4,40.6,-100.00,SW,218,1.6,5.8,76,0.00,,,-99.99,HOBO +U30 +Weather +,2013-04-29 07:00:00,
2013-04-29 03:15:00,47.4,40.8,-100.00,SW,226,1.3,4.5,77,0.00,,,-99.99,HOBO +U30 +Weather +,2013-04-29 07:15:00,
2013-04-29 03:30:00,47.3,41.0,-100.00,SW,230,1.3,4.5,78,0.00,,,-99.99,HOBO +U30 +Weather +,2013-04-29 07:30:00,
2013-04-29 03:45:00,47.4,41.3,-100.00,WSW,237,2.5,6.3,79,0.00,,,-99.99,HOBO +U30 +Weather +,2013-04-29 07:45:00,
2013-04-29 04:00:00,47.2,41.5,-100.00,WSW,240,2.0,4.5,80,0.00,,,-99.99,HOBO +U30 +Weather +,2013-04-29 08:00:00,
2013-04-29 04:15:00,46.8,41.6,-100.00,WSW,240,1.3,3.8,81,0.00,,,-99.99,HOBO +U30 +Weather +,2013-04-29 08:15:00,
2013-04-29 04:30:00,46.4,41.6,-100.00,WSW,240,0.9,3.4,83,0.00,,,-99.99,HOBO +U30 +Weather +,2013-04-29 08:30:00,
2013-04-29 04:45:00,45.9,41.6,-100.00,WSW,240,1.3,2.9,84,0.00,,,-99.99,HOBO +U30 +Weather +,2013-04-29 08:45:00,
2013-04-29 05:00:00,46.4,41.8,-100.00,WSW,240,1.6,2.9,84,0.00,,,-99.99,HOBO +U30 +Weather +,2013-04-29 09:00:00,
2013-04-29 05:15:00,46.2,41.8,-100.00,WSW,240,1.3,4.3,84,0.00,,,-99.99,HOBO +U30 +Weather +,2013-04-29 09:15:00,
2013-04-29 05:30:00,45.5,41.4,-100.00,WSW,240,0.4,2.5,85,0.00,,,-99.99,HOBO +U30 +Weather +,2013-04-29 09:30:00,
2013-04-29 05:45:00,45.1,41.2,-100.00,WSW,240,0.0,1.3,86,0.00,,,-99.99,HOBO +U30 +Weather +,2013-04-29 09:45:00,
2013-04-29 06:00:00,44.8,41.3,-100.00,WSW,240,0.0,1.3,87,0.00,,,-99.99,HOBO +U30 +Weather +,2013-04-29 10:00:00,
2013-04-29 06:15:00,44.9,41.6,-100.00,WSW,240,0.4,1.6,87,0.00,,,-99.99,HOBO +U30 +Weather +,2013-04-29 10:15:00,
2013-04-29 06:30:00,44.9,41.7,-100.00,WSW,240,0.0,1.3,88,0.00,,,-99.99,HOBO +U30 +Weather +,2013-04-29 10:30:00,
2013-04-29 06:45:00,45.4,42.4,-100.00,WSW,240,0.4,2.0,89,0.00,,,-99.99,HOBO +U30 +Weather +,2013-04-29 10:45:00,
2013-04-29 07:00:00,46.7,43.5,-100.00,WSW,240,1.6,3.8,88,0.00,,,-99.99,HOBO +U30 +Weather +,2013-04-29 11:00:00,
2013-04-29 07:15:00,48.2,44.3,-100.00,SSW,212,2.9,4.9,86,0.00,,,-99.99,HOBO +U30 +Weather +,2013-04-29 11:15:00,
2013-04-29 07:30:00,49.2,45.0,-100.00,South,181,3.4,6.3,85,0.00,,,-99.99,HOBO +U30 +Weather +,2013-04-29 11:30:00,
2013-04-29 07:45:00,50.5,45.3,-100.00,South,183,1.6,3.8,82,0.00,,,-99.99,HOBO +U30 +Weather +,2013-04-29 11:45:00,
2013-04-29 08:00:00,51.6,46.1,-100.00,South,183,2.0,4.5,81,0.00,,,-99.99,HOBO +U30 +Weather +,2013-04-29 12:00:00,
2013-04-29 08:15:00,53.2,45.9,-100.00,SW,216,3.8,7.2,76,0.00,,,-99.99,HOBO +U30 +Weather +,2013-04-29 12:15:00,
2013-04-29 08:30:00,54.0,46.2,-100.00,SW,218,4.5,10.1,74,0.00,,,-99.99,HOBO +U30 +Weather +,2013-04-29 12:30:00,
2013-04-29 08:45:00,56.1,47.3,-100.00,SW,222,3.8,8.3,72,0.00,,,-99.99,HOBO +U30 +Weather +,2013-04-29 12:45:00,
2013-04-29 09:00:00,55.8,46.6,-100.00,SW,219,3.4,11.2,71,0.00,,,-99.99,HOBO +U30 +Weather +,2013-04-29 13:00:00,
2013-04-29 09:15:00,55.9,46.6,-100.00,SW,220,4.5,11.2,70,0.00,,,-99.99,HOBO +U30 +Weather +,2013-04-29 13:15:00,
2013-04-29 09:30:00,56.2,46.7,-100.00,SW,225,5.4,10.1,70,0.00,,,-99.99,HOBO +U30 +Weather +,2013-04-29 13:30:00,
2013-04-29 09:45:00,57.1,46.2,-100.00,SW,229,5.4,10.3,66,0.00,,,-99.99,HOBO +U30 +Weather +,2013-04-29 13:45:00,
2013-04-29 10:00:00,57.9,46.9,-100.00,SSW,212,4.9,10.3,66,0.00,,,-99.99,HOBO +U30 +Weather +,2013-04-29 14:00:00,
2013-04-29 10:15:00,59.3,47.0,-100.00,WSW,244,3.8,8.3,63,0.00,,,-99.99,HOBO +U30 +Weather +,2013-04-29 14:15:00,
2013-04-29 10:30:00,59.7,47.0,-100.00,WSW,239,4.9,10.3,62,0.00,,,-99.99,HOBO +U30 +Weather +,2013-04-29 14:30:00,
2013-04-29 10:45:00,61.3,47.5,-100.00,WSW,254,4.5,9.6,60,0.00,,,-99.99,HOBO +U30 +Weather +,2013-04-29 14:45:00,
2013-04-29 11:00:00,61.6,47.8,-100.00,SW,216,4.9,10.3,60,0.00,,,-99.99,HOBO +U30 +Weather +,2013-04-29 15:00:00,
2013-04-29 11:15:00,61.6,45.6,-100.00,WSW,241,5.4,10.3,55,0.00,,,-99.99,HOBO +U30 +Weather +,2013-04-29 15:15:00,
2013-04-29 11:30:00,61.9,42.0,-100.00,SSW,211,5.8,12.5,47,0.00,,,-99.99,HOBO +U30 +Weather +,2013-04-29 15:30:00,
2013-04-29 11:45:00,63.3,43.9,-100.00,SSW,206,5.4,10.1,49,0.00,,,-99.99,HOBO +U30 +Weather +,2013-04-29 15:45:00,
2013-04-29 12:00:00,64.0,42.6,-100.00,SW,219,3.4,11.6,45,0.00,,,-99.99,HOBO +U30 +Weather +,2013-04-29 16:00:00,
2013-04-29 12:15:00,65.8,45.8,-100.00,SSW,202,2.0,9.2,48,0.00,,,-99.99,HOBO +U30 +Weather +,2013-04-29 16:15:00,
2013-04-29 12:30:00,64.0,44.1,-100.00,SSW,195,4.3,11.6,48,0.00,,,-99.99,HOBO +U30 +Weather +,2013-04-29 16:30:00,
2013-04-29 12:45:00,65.5,44.5,-100.00,South,171,4.3,10.1,46,0.00,,,-99.99,HOBO +U30 +Weather +,2013-04-29 16:45:00,
2013-04-29 13:00:00,66.7,42.8,-100.00,SSE,166,4.5,13.2,41,0.00,,,-99.99,HOBO +U30 +Weather +,2013-04-29 17:00:00,
2013-04-29 13:15:00,65.7,42.0,-100.00,SE,138,6.3,13.2,42,0.00,,,-99.99,HOBO +U30 +Weather +,2013-04-29 17:15:00,
2013-04-29 13:30:00,66.8,42.0,-100.00,South,178,6.7,13.6,40,0.00,,,-99.99,HOBO +U30 +Weather +,2013-04-29 17:30:00,
2013-04-29 13:45:00,67.9,41.6,-100.00,South,174,4.5,16.1,38,0.00,,,-99.99,HOBO +U30 +Weather +,2013-04-29 17:45:00,
2013-04-29 14:00:00,67.2,41.1,-100.00,SSW,205,4.9,13.0,38,0.00,,,-99.99,HOBO +U30 +Weather +,2013-04-29 18:00:00,
2013-04-29 14:15:00,67.8,41.6,-100.00,SSE,160,7.4,17.0,38,0.00,,,-99.99,HOBO +U30 +Weather +,2013-04-29 18:15:00,
2013-04-29 14:30:00,67.4,44.0,-100.00,SSW,194,7.2,16.1,42,0.00,,,-99.99,HOBO +U30 +Weather +,2013-04-29 18:30:00,
2013-04-29 14:45:00,68.5,43.6,-100.00,SSE,161,4.9,13.0,40,0.00,,,-99.99,HOBO +U30 +Weather +,2013-04-29 18:45:00,
2013-04-29 15:00:00,65.3,42.2,-100.00,SSW,208,6.7,15.0,42,0.00,,,-99.99,HOBO +U30 +Weather +,2013-04-29 19:00:00,
2013-04-29 15:15:00,65.6,41.8,-100.00,South,175,7.2,15.9,41,0.00,,,-99.99,HOBO +U30 +Weather +,2013-04-29 19:15:00,
2013-04-29 15:30:00,66.9,42.2,-100.00,South,171,5.8,14.1,40,0.00,,,-99.99,HOBO +U30 +Weather +,2013-04-29 19:30:00,
2013-04-29 15:45:00,66.7,43.6,-100.00,SSE,164,6.7,15.0,43,0.00,,,-99.99,HOBO +U30 +Weather +,2013-04-29 19:45:00,
2013-04-29 16:00:00,66.9,38.8,-100.00,South,181,7.8,19.5,35,0.00,,,-99.99,HOBO +U30 +Weather +,2013-04-29 20:00:00,
2013-04-29 16:15:00,66.4,39.0,-100.00,SW,234,8.3,16.6,36,0.00,,,-99.99,HOBO +U30 +Weather +,2013-04-29 20:15:00,
2013-04-29 16:30:00,65.6,37.1,-100.00,WSW,237,7.2,14.5,34,0.00,,,-99.99,HOBO +U30 +Weather +,2013-04-29 20:30:00,
2013-04-29 16:45:00,62.4,34.1,-100.00,SW,227,7.8,14.5,34,0.00,,,-99.99,HOBO +U30 +Weather +,2013-04-29 20:45:00,
2013-04-29 17:00:00,62.5,34.0,-100.00,SW,219,6.3,16.6,34,0.00,,,-99.99,HOBO +U30 +Weather +,2013-04-29 21:00:00,
2013-04-29 17:15:00,62.5,34.1,-100.00,SW,216,6.3,11.6,34,0.00,,,-99.99,HOBO +U30 +Weather +,2013-04-29 21:15:00,
2013-04-29 17:30:00,61.8,32.7,-100.00,SW,227,6.7,13.0,33,0.00,,,-99.99,HOBO +U30 +Weather +,2013-04-29 21:30:00,
2013-04-29 17:45:00,61.4,32.2,-100.00,WSW,237,6.7,12.5,33,0.00,,,-99.99,HOBO +U30 +Weather +,2013-04-29 21:45:00,
2013-04-29 18:00:00,61.0,31.9,-100.00,SW,230,6.7,13.2,33,0.00,,,-99.99,HOBO +U30 +Weather +,2013-04-29 22:00:00,
2013-04-29 18:15:00,61.2,32.6,-100.00,SW,236,4.9,10.7,33,0.00,,,-99.99,HOBO +U30 +Weather +,2013-04-29 22:15:00,
2013-04-29 18:30:00,60.5,31.4,-100.00,WSW,253,5.4,11.6,33,0.00,,,-99.99,HOBO +U30 +Weather +,2013-04-29 22:30:00,
2013-04-29 18:45:00,59.8,31.0,-100.00,WSW,239,4.9,13.0,33,0.00,,,-99.99,HOBO +U30 +Weather +,2013-04-29 22:45:00,
2013-04-29 19:00:00,59.3,30.9,-100.00,SW,227,3.8,10.7,33,0.00,,,-99.99,HOBO +U30 +Weather +,2013-04-29 23:00:00,
2013-04-29 19:15:00,58.7,30.3,-100.00,WSW,250,4.3,7.4,33,0.00,,,-99.99,HOBO +U30 +Weather +,2013-04-29 23:15:00,
2013-04-29 19:30:00,58.2,30.1,-100.00,WSW,239,2.9,7.2,34,0.00,,,-99.99,HOBO +U30 +Weather +,2013-04-29 23:30:00,
2013-04-29 19:45:00,57.8,29.3,-100.00,WSW,240,2.5,7.8,33,0.00,,,-99.99,HOBO +U30 +Weather +,2013-04-29 23:45:00,
2013-04-29 20:00:00,57.3,27.8,-100.00,SW,234,3.8,10.1,32,0.00,,,-99.99,HOBO +U30 +Weather +,2013-04-30 00:00:00,
2013-04-29 20:15:00,56.8,27.0,-100.00,SW,226,4.3,7.8,31,0.00,,,-99.99,HOBO +U30 +Weather +,2013-04-30 00:15:00,
2013-04-29 20:30:00,56.5,26.9,-100.00,SW,219,3.4,6.7,31,0.00,,,-99.99,HOBO +U30 +Weather +,2013-04-30 00:30:00,
2013-04-29 20:45:00,56.2,26.6,-100.00,SW,216,2.5,6.3,31,0.00,,,-99.99,HOBO +U30 +Weather +,2013-04-30 00:45:00,
2013-04-29 21:00:00,56.1,25.4,-100.00,SW,223,4.3,10.7,30,0.00,,,-99.99,HOBO +U30 +Weather +,2013-04-30 01:00:00,
2013-04-29 21:15:00,55.7,25.4,-100.00,SW,230,3.8,7.8,30,0.00,,,-99.99,HOBO +U30 +Weather +,2013-04-30 01:15:00,
2013-04-29 21:30:00,55.4,25.6,-100.00,SW,230,3.4,7.8,31,0.00,,,-99.99,HOBO +U30 +Weather +,2013-04-30 01:30:00,
2013-04-29 21:45:00,55.1,26.3,-100.00,SW,225,3.8,9.6,32,0.00,,,-99.99,HOBO +U30 +Weather +,2013-04-30 01:45:00,
2013-04-29 22:00:00,54.8,27.2,-100.00,SW,226,2.9,8.3,34,0.00,,,-99.99,HOBO +U30 +Weather +,2013-04-30 02:00:00,
2013-04-29 22:15:00,54.9,24.9,-100.00,SW,227,2.9,7.2,31,0.00,,,-99.99,HOBO +U30 +Weather +,2013-04-30 02:15:00,
2013-04-29 22:30:00,54.7,25.7,-100.00,SW,233,3.4,6.7,32,0.00,,,-99.99,HOBO +U30 +Weather +,2013-04-30 02:30:00,
2013-04-29 22:45:00,54.2,27.3,-100.00,SW,233,3.4,7.2,35,0.00,,,-99.99,HOBO +U30 +Weather +,2013-04-30 02:45:00,
2013-04-29 23:00:00,54.2,26.4,-100.00,SW,236,3.4,8.3,33,0.00,,,-99.99,HOBO +U30 +Weather +,2013-04-30 03:00:00,
2013-04-29 23:15:00,54.0,25.9,-100.00,WSW,240,3.4,7.2,33,0.00,,,-99.99,HOBO +U30 +Weather +,2013-04-30 03:15:00,
2013-04-29 23:30:00,53.7,26.9,-100.00,SW,234,2.5,5.8,35,0.00,,,-99.99,HOBO +U30 +Weather +,2013-04-30 03:30:00,
2013-04-29 23:45:00,53.4,27.5,-100.00,SW,227,2.9,7.2,36,0.00,,,-99.99,HOBO +U30 +Weather +,2013-04-30 03:45:00,